sensor_id;sensor_type;location;lat;lon;timestamp;P1;durP1;ratioP1;P2;durP2;ratioP2
6561;SDS011;3314;50.890;4.722;2023-08-24T00:01:12;9.6;;;3.2;;
6561;SDS011;3314;50.890;4.722;2023-08-24T00:02:59;10.3;;;3.5;;
6561;SDS011;3314;50.890;4.722;2023-08-24T00:04:59;9.9;;;3.2;;
6561;SDS011;3314;50.890;4.722;2023-08-24T00:06:59;13.2;;;3.2;;
6561;SDS011;3314;50.890;4.722;2023-08-24T00:08:59;13.1;;;3.4;;
6561;SDS011;3314;50.890;4.722;2023-08-24T00:10:59;13.5;;;3.4;;
6561;SDS011;3314;50.890;4.722;2023-08-24T00:12:59;11.7;;;3.2;;
6561;SDS011;3314;50.890;4.722;2023-08-24T00:14:58;11.5;;;3.4;;
6561;SDS011;3314;50.890;4.722;2023-08-24T00:16:58;10.4;;;3.5;;
6561;SDS011;3314;50.890;4.722;2023-08-24T00:18:58;10.9;;;3.1;;
6561;SDS011;3314;50.890;4.722;2023-08-24T00:20:58;13.2;;;3.5;;
6561;SDS011;3314;50.890;4.722;2023-08-24T00:22:58;10.3;;;3.3;;
6561;SDS011;3314;50.890;4.722;2023-08-24T00:24:58;9.1;;;3.1;;
6561;SDS011;3314;50.890;4.722;2023-08-24T00:26:58;9.2;;;3.3;;
6561;SDS011;3314;50.890;4.722;2023-08-24T00:28:57;8.8;;;2.9;;
6561;SDS011;3314;50.890;4.722;2023-08-24T00:30:57;11.0;;;3.4;;
6561;SDS011;3314;50.890;4.722;2023-08-24T00:32:57;11.0;;;3.2;;
6561;SDS011;3314;50.890;4.722;2023-08-24T00:34:57;15.0;;;3.5;;
6561;SDS011;3314;50.890;4.722;2023-08-24T00:36:57;9.8;;;3.2;;
6561;SDS011;3314;50.890;4.722;2023-08-24T00:38:57;11.6;;;3.8;;
6561;SDS011;3314;50.890;4.722;2023-08-24T00:40:57;11.4;;;3.4;;
6561;SDS011;3314;50.890;4.722;2023-08-24T00:42:57;10.9;;;3.5;;
6561;SDS011;3314;50.890;4.722;2023-08-24T00:44:57;11.4;;;3.7;;
6561;SDS011;3314;50.890;4.722;2023-08-24T00:46:56;10.5;;;3.4;;
6561;SDS011;3314;50.890;4.722;2023-08-24T00:48:57;10.4;;;3.5;;
6561;SDS011;3314;50.890;4.722;2023-08-24T00:50:58;9.5;;;3.2;;
6561;SDS011;3314;50.890;4.722;2023-08-24T00:52:58;11.9;;;3.4;;
6561;SDS011;3314;50.890;4.722;2023-08-24T00:54:58;12.7;;;4.1;;
6561;SDS011;3314;50.890;4.722;2023-08-24T00:56:58;14.5;;;3.5;;
6561;SDS011;3314;50.890;4.722;2023-08-24T00:58:58;12.8;;;4.2;;
6561;SDS011;3314;50.890;4.722;2023-08-24T01:00:57;11.2;;;4.0;;
6561;SDS011;3314;50.890;4.722;2023-08-24T01:02:57;12.5;;;3.8;;
6561;SDS011;3314;50.890;4.722;2023-08-24T01:04:57;12.9;;;4.6;;
6561;SDS011;3314;50.890;4.722;2023-08-24T01:06:57;10.6;;;4.0;;
6561;SDS011;3314;50.890;4.722;2023-08-24T01:08:57;13.4;;;5.1;;
6561;SDS011;3314;50.890;4.722;2023-08-24T01:10:59;15.4;;;4.7;;
6561;SDS011;3314;50.890;4.722;2023-08-24T01:13:02;11.9;;;5.1;;
6561;SDS011;3314;50.890;4.722;2023-08-24T01:15:03;13.2;;;4.8;;
6561;SDS011;3314;50.890;4.722;2023-08-24T01:17:04;15.5;;;5.1;;
6561;SDS011;3314;50.890;4.722;2023-08-24T01:18:54;16.0;;;4.4;;
6561;SDS011;3314;50.890;4.722;2023-08-24T01:20:55;14.5;;;4.3;;
6561;SDS011;3314;50.890;4.722;2023-08-24T01:22:57;13.2;;;4.6;;
6561;SDS011;3314;50.890;4.722;2023-08-24T01:25:00;13.7;;;4.4;;
6561;SDS011;3314;50.890;4.722;2023-08-24T01:27:00;10.3;;;4.0;;
6561;SDS011;3314;50.890;4.722;2023-08-24T01:29:00;13.3;;;4.4;;
6561;SDS011;3314;50.890;4.722;2023-08-24T01:31:00;11.3;;;4.0;;
6561;SDS011;3314;50.890;4.722;2023-08-24T01:33:02;16.5;;;4.7;;
6561;SDS011;3314;50.890;4.722;2023-08-24T01:35:02;13.4;;;4.3;;
6561;SDS011;3314;50.890;4.722;2023-08-24T01:37:02;13.8;;;3.9;;
6561;SDS011;3314;50.890;4.722;2023-08-24T01:39:09;11.2;;;3.8;;
6561;SDS011;3314;50.890;4.722;2023-08-24T01:41:01;13.0;;;4.2;;
6561;SDS011;3314;50.890;4.722;2023-08-24T01:43:04;13.5;;;4.4;;
6561;SDS011;3314;50.890;4.722;2023-08-24T01:44:54;10.0;;;4.2;;
6561;SDS011;3314;50.890;4.722;2023-08-24T01:46:55;12.2;;;4.4;;
6561;SDS011;3314;50.890;4.722;2023-08-24T01:48:55;12.9;;;4.2;;
6561;SDS011;3314;50.890;4.722;2023-08-24T01:50:55;10.7;;;4.0;;
6561;SDS011;3314;50.890;4.722;2023-08-24T01:52:55;11.3;;;3.9;;
6561;SDS011;3314;50.890;4.722;2023-08-24T01:54:55;11.5;;;4.1;;
6561;SDS011;3314;50.890;4.722;2023-08-24T01:56:54;12.7;;;4.0;;
6561;SDS011;3314;50.890;4.722;2023-08-24T01:58:54;14.5;;;4.3;;
6561;SDS011;3314;50.890;4.722;2023-08-24T02:00:54;13.1;;;4.5;;
6561;SDS011;3314;50.890;4.722;2023-08-24T02:02:53;11.8;;;4.5;;
6561;SDS011;3314;50.890;4.722;2023-08-24T02:04:53;14.6;;;4.7;;
6561;SDS011;3314;50.890;4.722;2023-08-24T02:06:53;16.8;;;5.0;;
6561;SDS011;3314;50.890;4.722;2023-08-24T02:08:53;14.4;;;4.6;;
6561;SDS011;3314;50.890;4.722;2023-08-24T02:10:52;11.4;;;5.0;;
6561;SDS011;3314;50.890;4.722;2023-08-24T02:12:52;16.3;;;5.7;;
6561;SDS011;3314;50.890;4.722;2023-08-24T02:14:52;14.6;;;5.1;;
6561;SDS011;3314;50.890;4.722;2023-08-24T02:16:51;13.6;;;4.9;;
6561;SDS011;3314;50.890;4.722;2023-08-24T02:18:51;14.6;;;5.4;;
6561;SDS011;3314;50.890;4.722;2023-08-24T02:20:51;13.5;;;5.1;;
6561;SDS011;3314;50.890;4.722;2023-08-24T02:22:50;13.3;;;5.0;;
6561;SDS011;3314;50.890;4.722;2023-08-24T02:24:50;14.2;;;5.8;;
6561;SDS011;3314;50.890;4.722;2023-08-24T02:26:50;15.2;;;5.2;;
6561;SDS011;3314;50.890;4.722;2023-08-24T02:28:50;14.7;;;5.3;;
6561;SDS011;3314;50.890;4.722;2023-08-24T02:30:50;12.8;;;4.7;;
6561;SDS011;3314;50.890;4.722;2023-08-24T02:32:50;17.9;;;6.1;;
6561;SDS011;3314;50.890;4.722;2023-08-24T02:34:49;12.9;;;5.8;;
6561;SDS011;3314;50.890;4.722;2023-08-24T02:36:49;14.4;;;6.2;;
6561;SDS011;3314;50.890;4.722;2023-08-24T02:38:49;15.4;;;6.0;;
6561;SDS011;3314;50.890;4.722;2023-08-24T02:40:49;14.9;;;5.8;;
6561;SDS011;3314;50.890;4.722;2023-08-24T02:42:49;16.0;;;5.1;;
6561;SDS011;3314;50.890;4.722;2023-08-24T02:44:49;15.3;;;6.1;;
6561;SDS011;3314;50.890;4.722;2023-08-24T02:46:49;17.1;;;6.4;;
6561;SDS011;3314;50.890;4.722;2023-08-24T02:48:49;14.6;;;6.3;;
6561;SDS011;3314;50.890;4.722;2023-08-24T02:50:48;16.3;;;6.6;;
6561;SDS011;3314;50.890;4.722;2023-08-24T02:52:48;13.8;;;6.1;;
6561;SDS011;3314;50.890;4.722;2023-08-24T02:54:48;15.8;;;6.4;;
6561;SDS011;3314;50.890;4.722;2023-08-24T02:56:48;15.2;;;6.7;;
6561;SDS011;3314;50.890;4.722;2023-08-24T02:58:48;16.8;;;5.8;;
6561;SDS011;3314;50.890;4.722;2023-08-24T03:00:48;13.6;;;5.6;;
6561;SDS011;3314;50.890;4.722;2023-08-24T03:02:48;13.9;;;5.7;;
6561;SDS011;3314;50.890;4.722;2023-08-24T03:04:48;17.1;;;5.8;;
6561;SDS011;3314;50.890;4.722;2023-08-24T03:06:47;15.2;;;5.7;;
6561;SDS011;3314;50.890;4.722;2023-08-24T03:08:47;16.1;;;5.6;;
6561;SDS011;3314;50.890;4.722;2023-08-24T03:10:47;16.9;;;5.6;;
6561;SDS011;3314;50.890;4.722;2023-08-24T03:12:47;14.4;;;5.3;;
6561;SDS011;3314;50.890;4.722;2023-08-24T03:14:47;13.2;;;5.0;;
6561;SDS011;3314;50.890;4.722;2023-08-24T03:16:50;14.2;;;5.3;;
6561;SDS011;3314;50.890;4.722;2023-08-24T03:18:50;13.4;;;5.0;;
6561;SDS011;3314;50.890;4.722;2023-08-24T03:20:49;12.8;;;4.9;;
6561;SDS011;3314;50.890;4.722;2023-08-24T03:22:49;18.4;;;5.9;;
6561;SDS011;3314;50.890;4.722;2023-08-24T03:24:49;13.8;;;5.7;;
6561;SDS011;3314;50.890;4.722;2023-08-24T03:26:48;15.5;;;5.6;;
6561;SDS011;3314;50.890;4.722;2023-08-24T03:28:48;19.9;;;6.2;;
6561;SDS011;3314;50.890;4.722;2023-08-24T03:30:48;11.9;;;4.8;;
6561;SDS011;3314;50.890;4.722;2023-08-24T03:32:48;14.7;;;6.1;;
6561;SDS011;3314;50.890;4.722;2023-08-24T03:34:47;19.5;;;5.8;;
6561;SDS011;3314;50.890;4.722;2023-08-24T03:36:48;15.8;;;5.8;;
6561;SDS011;3314;50.890;4.722;2023-08-24T03:38:47;13.1;;;5.8;;
6561;SDS011;3314;50.890;4.722;2023-08-24T03:40:47;15.5;;;6.7;;
6561;SDS011;3314;50.890;4.722;2023-08-24T03:42:46;14.1;;;5.6;;
6561;SDS011;3314;50.890;4.722;2023-08-24T03:44:46;13.2;;;4.7;;
6561;SDS011;3314;50.890;4.722;2023-08-24T03:46:46;13.1;;;5.0;;
6561;SDS011;3314;50.890;4.722;2023-08-24T03:48:45;14.4;;;5.4;;
6561;SDS011;3314;50.890;4.722;2023-08-24T03:50:45;15.9;;;5.0;;
6561;SDS011;3314;50.890;4.722;2023-08-24T03:52:44;12.9;;;5.5;;
6561;SDS011;3314;50.890;4.722;2023-08-24T03:54:44;13.0;;;5.6;;
6561;SDS011;3314;50.890;4.722;2023-08-24T03:56:44;15.7;;;5.5;;
6561;SDS011;3314;50.890;4.722;2023-08-24T03:58:44;10.3;;;4.3;;
6561;SDS011;3314;50.890;4.722;2023-08-24T04:00:44;12.2;;;5.0;;
6561;SDS011;3314;50.890;4.722;2023-08-24T04:02:44;15.3;;;5.1;;
6561;SDS011;3314;50.890;4.722;2023-08-24T04:04:43;15.2;;;5.1;;
6561;SDS011;3314;50.890;4.722;2023-08-24T04:06:43;12.3;;;5.4;;
6561;SDS011;3314;50.890;4.722;2023-08-24T04:08:43;16.1;;;5.7;;
6561;SDS011;3314;50.890;4.722;2023-08-24T04:10:43;12.6;;;5.4;;
6561;SDS011;3314;50.890;4.722;2023-08-24T04:12:43;12.8;;;4.9;;
6561;SDS011;3314;50.890;4.722;2023-08-24T04:14:43;12.3;;;4.8;;
6561;SDS011;3314;50.890;4.722;2023-08-24T04:16:43;15.6;;;5.0;;
6561;SDS011;3314;50.890;4.722;2023-08-24T04:18:42;12.8;;;4.8;;
6561;SDS011;3314;50.890;4.722;2023-08-24T04:20:42;15.7;;;5.2;;
6561;SDS011;3314;50.890;4.722;2023-08-24T04:22:42;13.2;;;5.1;;
6561;SDS011;3314;50.890;4.722;2023-08-24T04:24:42;15.0;;;4.6;;
6561;SDS011;3314;50.890;4.722;2023-08-24T04:26:42;12.8;;;5.0;;
6561;SDS011;3314;50.890;4.722;2023-08-24T04:28:43;11.8;;;4.0;;
6561;SDS011;3314;50.890;4.722;2023-08-24T04:30:48;11.4;;;4.3;;
6561;SDS011;3314;50.890;4.722;2023-08-24T04:32:48;13.6;;;5.6;;
6561;SDS011;3314;50.890;4.722;2023-08-24T04:34:47;13.8;;;5.0;;
6561;SDS011;3314;50.890;4.722;2023-08-24T04:36:47;15.4;;;5.0;;
6561;SDS011;3314;50.890;4.722;2023-08-24T04:38:47;15.0;;;4.4;;
6561;SDS011;3314;50.890;4.722;2023-08-24T04:40:47;12.4;;;4.6;;
6561;SDS011;3314;50.890;4.722;2023-08-24T04:42:47;11.5;;;4.9;;
6561;SDS011;3314;50.890;4.722;2023-08-24T04:44:47;15.3;;;4.8;;
6561;SDS011;3314;50.890;4.722;2023-08-24T04:46:46;13.0;;;5.0;;
6561;SDS011;3314;50.890;4.722;2023-08-24T04:48:46;16.2;;;5.9;;
6561;SDS011;3314;50.890;4.722;2023-08-24T04:50:46;14.5;;;4.7;;
6561;SDS011;3314;50.890;4.722;2023-08-24T04:52:45;11.6;;;4.6;;
6561;SDS011;3314;50.890;4.722;2023-08-24T04:54:45;15.4;;;5.3;;
6561;SDS011;3314;50.890;4.722;2023-08-24T04:56:45;14.4;;;4.8;;
6561;SDS011;3314;50.890;4.722;2023-08-24T04:58:51;10.8;;;4.3;;
6561;SDS011;3314;50.890;4.722;2023-08-24T05:00:39;16.1;;;4.8;;
6561;SDS011;3314;50.890;4.722;2023-08-24T05:02:39;13.3;;;4.1;;
6561;SDS011;3314;50.890;4.722;2023-08-24T05:04:39;12.0;;;4.9;;
6561;SDS011;3314;50.890;4.722;2023-08-24T05:06:39;13.7;;;4.7;;
6561;SDS011;3314;50.890;4.722;2023-08-24T05:08:38;13.2;;;4.4;;
6561;SDS011;3314;50.890;4.722;2023-08-24T05:10:39;12.8;;;4.8;;
6561;SDS011;3314;50.890;4.722;2023-08-24T05:12:38;11.2;;;4.5;;
6561;SDS011;3314;50.890;4.722;2023-08-24T05:14:38;11.2;;;4.3;;
6561;SDS011;3314;50.890;4.722;2023-08-24T05:16:38;15.1;;;4.8;;
6561;SDS011;3314;50.890;4.722;2023-08-24T05:18:38;13.2;;;5.2;;
6561;SDS011;3314;50.890;4.722;2023-08-24T05:20:38;14.5;;;4.3;;
6561;SDS011;3314;50.890;4.722;2023-08-24T05:22:38;12.9;;;4.3;;
6561;SDS011;3314;50.890;4.722;2023-08-24T05:24:37;11.0;;;4.5;;
6561;SDS011;3314;50.890;4.722;2023-08-24T05:26:37;15.1;;;4.5;;
6561;SDS011;3314;50.890;4.722;2023-08-24T05:28:37;13.9;;;4.8;;
6561;SDS011;3314;50.890;4.722;2023-08-24T05:30:37;15.0;;;5.0;;
6561;SDS011;3314;50.890;4.722;2023-08-24T05:32:39;13.9;;;4.7;;
6561;SDS011;3314;50.890;4.722;2023-08-24T05:34:38;12.1;;;4.6;;
6561;SDS011;3314;50.890;4.722;2023-08-24T05:36:38;11.3;;;4.4;;
6561;SDS011;3314;50.890;4.722;2023-08-24T05:38:38;14.1;;;4.5;;
6561;SDS011;3314;50.890;4.722;2023-08-24T05:40:38;13.0;;;5.1;;
6561;SDS011;3314;50.890;4.722;2023-08-24T05:42:37;14.5;;;4.8;;
6561;SDS011;3314;50.890;4.722;2023-08-24T05:44:37;11.8;;;4.6;;
6561;SDS011;3314;50.890;4.722;2023-08-24T05:46:37;13.2;;;3.9;;
6561;SDS011;3314;50.890;4.722;2023-08-24T05:48:37;12.4;;;4.2;;
6561;SDS011;3314;50.890;4.722;2023-08-24T05:50:41;12.8;;;4.6;;
6561;SDS011;3314;50.890;4.722;2023-08-24T05:52:41;12.0;;;4.5;;
6561;SDS011;3314;50.890;4.722;2023-08-24T05:54:41;15.9;;;4.4;;
6561;SDS011;3314;50.890;4.722;2023-08-24T05:56:40;13.1;;;4.5;;
6561;SDS011;3314;50.890;4.722;2023-08-24T05:58:40;12.8;;;3.9;;
6561;SDS011;3314;50.890;4.722;2023-08-24T06:00:39;13.5;;;3.8;;
6561;SDS011;3314;50.890;4.722;2023-08-24T06:02:39;20.7;;;4.1;;
6561;SDS011;3314;50.890;4.722;2023-08-24T06:04:39;11.5;;;3.4;;
6561;SDS011;3314;50.890;4.722;2023-08-24T06:06:38;13.4;;;3.9;;
6561;SDS011;3314;50.890;4.722;2023-08-24T06:08:38;12.8;;;4.8;;
6561;SDS011;3314;50.890;4.722;2023-08-24T06:10:38;12.6;;;3.8;;
6561;SDS011;3314;50.890;4.722;2023-08-24T06:12:37;11.0;;;4.1;;
6561;SDS011;3314;50.890;4.722;2023-08-24T06:14:37;17.5;;;4.6;;
6561;SDS011;3314;50.890;4.722;2023-08-24T06:16:37;12.8;;;3.5;;
6561;SDS011;3314;50.890;4.722;2023-08-24T06:18:36;13.1;;;3.8;;
6561;SDS011;3314;50.890;4.722;2023-08-24T06:20:36;11.0;;;4.3;;
6561;SDS011;3314;50.890;4.722;2023-08-24T06:22:36;17.0;;;3.8;;
6561;SDS011;3314;50.890;4.722;2023-08-24T06:24:35;11.6;;;4.4;;
6561;SDS011;3314;50.890;4.722;2023-08-24T06:26:35;12.1;;;4.1;;
6561;SDS011;3314;50.890;4.722;2023-08-24T06:28:34;13.6;;;4.7;;
6561;SDS011;3314;50.890;4.722;2023-08-24T06:30:39;11.0;;;4.1;;
6561;SDS011;3314;50.890;4.722;2023-08-24T06:32:39;11.5;;;4.1;;
6561;SDS011;3314;50.890;4.722;2023-08-24T06:34:38;14.5;;;4.2;;
6561;SDS011;3314;50.890;4.722;2023-08-24T06:36:38;12.2;;;3.9;;
6561;SDS011;3314;50.890;4.722;2023-08-24T06:38:37;11.6;;;4.1;;
6561;SDS011;3314;50.890;4.722;2023-08-24T06:40:37;11.5;;;3.4;;
6561;SDS011;3314;50.890;4.722;2023-08-24T06:42:37;12.6;;;3.9;;
6561;SDS011;3314;50.890;4.722;2023-08-24T06:44:37;15.0;;;4.1;;
6561;SDS011;3314;50.890;4.722;2023-08-24T06:46:36;15.6;;;4.1;;
6561;SDS011;3314;50.890;4.722;2023-08-24T06:48:36;11.1;;;4.0;;
6561;SDS011;3314;50.890;4.722;2023-08-24T06:50:37;13.2;;;3.5;;
6561;SDS011;3314;50.890;4.722;2023-08-24T06:52:36;13.6;;;3.9;;
6561;SDS011;3314;50.890;4.722;2023-08-24T06:54:36;10.4;;;3.7;;
6561;SDS011;3314;50.890;4.722;2023-08-24T06:56:35;12.0;;;4.0;;
6561;SDS011;3314;50.890;4.722;2023-08-24T06:58:35;13.5;;;4.0;;
6561;SDS011;3314;50.890;4.722;2023-08-24T07:00:36;11.4;;;3.5;;
6561;SDS011;3314;50.890;4.722;2023-08-24T07:02:35;13.6;;;4.1;;
6561;SDS011;3314;50.890;4.722;2023-08-24T07:04:35;16.1;;;4.6;;
6561;SDS011;3314;50.890;4.722;2023-08-24T07:06:35;12.7;;;4.4;;
6561;SDS011;3314;50.890;4.722;2023-08-24T07:08:35;11.4;;;3.8;;
6561;SDS011;3314;50.890;4.722;2023-08-24T07:10:34;15.8;;;4.1;;
6561;SDS011;3314;50.890;4.722;2023-08-24T07:12:34;11.9;;;4.0;;
6561;SDS011;3314;50.890;4.722;2023-08-24T07:14:34;12.9;;;3.9;;
6561;SDS011;3314;50.890;4.722;2023-08-24T07:16:33;11.0;;;3.8;;
6561;SDS011;3314;50.890;4.722;2023-08-24T07:18:33;12.7;;;3.8;;
6561;SDS011;3314;50.890;4.722;2023-08-24T07:20:32;12.9;;;3.3;;
6561;SDS011;3314;50.890;4.722;2023-08-24T07:22:32;12.9;;;4.0;;
6561;SDS011;3314;50.890;4.722;2023-08-24T07:24:34;12.8;;;3.8;;
6561;SDS011;3314;50.890;4.722;2023-08-24T07:26:33;11.4;;;3.7;;
6561;SDS011;3314;50.890;4.722;2023-08-24T07:28:33;12.3;;;3.8;;
6561;SDS011;3314;50.890;4.722;2023-08-24T07:30:32;11.9;;;3.5;;
6561;SDS011;3314;50.890;4.722;2023-08-24T07:32:32;9.9;;;3.7;;
6561;SDS011;3314;50.890;4.722;2023-08-24T07:34:32;11.3;;;3.7;;
6561;SDS011;3314;50.890;4.722;2023-08-24T07:36:31;10.4;;;3.1;;
6561;SDS011;3314;50.890;4.722;2023-08-24T07:38:31;9.7;;;3.2;;
6561;SDS011;3314;50.890;4.722;2023-08-24T07:40:31;10.4;;;3.4;;
6561;SDS011;3314;50.890;4.722;2023-08-24T07:42:31;11.3;;;3.2;;
6561;SDS011;3314;50.890;4.722;2023-08-24T07:44:29;10.1;;;3.5;;
6561;SDS011;3314;50.890;4.722;2023-08-24T07:46:29;10.9;;;3.3;;
6561;SDS011;3314;50.890;4.722;2023-08-24T07:48:29;11.0;;;3.5;;
6561;SDS011;3314;50.890;4.722;2023-08-24T07:50:29;11.0;;;3.6;;
6561;SDS011;3314;50.890;4.722;2023-08-24T07:52:29;11.9;;;3.5;;
6561;SDS011;3314;50.890;4.722;2023-08-24T07:54:29;12.6;;;3.8;;
6561;SDS011;3314;50.890;4.722;2023-08-24T07:56:28;10.6;;;3.5;;
6561;SDS011;3314;50.890;4.722;2023-08-24T07:58:28;9.7;;;3.2;;
6561;SDS011;3314;50.890;4.722;2023-08-24T08:00:27;12.6;;;3.6;;
6561;SDS011;3314;50.890;4.722;2023-08-24T08:02:27;13.6;;;4.0;;
6561;SDS011;3314;50.890;4.722;2023-08-24T08:04:27;12.0;;;3.8;;
6561;SDS011;3314;50.890;4.722;2023-08-24T08:06:27;12.6;;;3.9;;
6561;SDS011;3314;50.890;4.722;2023-08-24T08:08:26;10.9;;;3.4;;
6561;SDS011;3314;50.890;4.722;2023-08-24T08:10:26;10.3;;;3.4;;
6561;SDS011;3314;50.890;4.722;2023-08-24T08:12:26;9.9;;;3.5;;
6561;SDS011;3314;50.890;4.722;2023-08-24T08:14:26;11.4;;;3.6;;
6561;SDS011;3314;50.890;4.722;2023-08-24T08:16:26;19.2;;;4.2;;
6561;SDS011;3314;50.890;4.722;2023-08-24T08:18:26;12.9;;;3.4;;
6561;SDS011;3314;50.890;4.722;2023-08-24T08:20:26;12.2;;;4.0;;
6561;SDS011;3314;50.890;4.722;2023-08-24T08:22:26;11.1;;;3.3;;
6561;SDS011;3314;50.890;4.722;2023-08-24T08:24:25;9.8;;;3.3;;
6561;SDS011;3314;50.890;4.722;2023-08-24T08:26:25;11.1;;;4.0;;
6561;SDS011;3314;50.890;4.722;2023-08-24T08:28:25;11.3;;;4.1;;
6561;SDS011;3314;50.890;4.722;2023-08-24T08:30:25;11.6;;;3.4;;
6561;SDS011;3314;50.890;4.722;2023-08-24T08:32:27;12.8;;;3.9;;
6561;SDS011;3314;50.890;4.722;2023-08-24T08:34:27;14.4;;;4.1;;
6561;SDS011;3314;50.890;4.722;2023-08-24T08:36:27;12.4;;;4.2;;
6561;SDS011;3314;50.890;4.722;2023-08-24T08:38:27;11.4;;;3.9;;
6561;SDS011;3314;50.890;4.722;2023-08-24T08:40:30;10.7;;;3.3;;
6561;SDS011;3314;50.890;4.722;2023-08-24T08:42:29;10.6;;;3.5;;
6561;SDS011;3314;50.890;4.722;2023-08-24T08:44:30;10.2;;;3.2;;
6561;SDS011;3314;50.890;4.722;2023-08-24T08:46:30;13.4;;;3.7;;
6561;SDS011;3314;50.890;4.722;2023-08-24T08:48:31;11.3;;;3.8;;
6561;SDS011;3314;50.890;4.722;2023-08-24T08:50:32;11.2;;;3.4;;
6561;SDS011;3314;50.890;4.722;2023-08-24T08:52:31;12.5;;;3.6;;
6561;SDS011;3314;50.890;4.722;2023-08-24T08:54:31;11.3;;;3.3;;
6561;SDS011;3314;50.890;4.722;2023-08-24T08:56:31;14.4;;;4.2;;
6561;SDS011;3314;50.890;4.722;2023-08-24T08:58:31;10.7;;;3.0;;
6561;SDS011;3314;50.890;4.722;2023-08-24T09:00:31;11.8;;;3.2;;
6561;SDS011;3314;50.890;4.722;2023-08-24T09:02:31;10.5;;;3.2;;
6561;SDS011;3314;50.890;4.722;2023-08-24T09:04:32;11.2;;;3.4;;
6561;SDS011;3314;50.890;4.722;2023-08-24T09:06:31;10.7;;;3.1;;
6561;SDS011;3314;50.890;4.722;2023-08-24T09:08:31;10.0;;;2.8;;
6561;SDS011;3314;50.890;4.722;2023-08-24T09:10:31;9.3;;;2.6;;
6561;SDS011;3314;50.890;4.722;2023-08-24T09:12:31;11.4;;;3.5;;
6561;SDS011;3314;50.890;4.722;2023-08-24T09:14:31;9.4;;;3.0;;
6561;SDS011;3314;50.890;4.722;2023-08-24T09:16:30;11.8;;;3.2;;
6561;SDS011;3314;50.890;4.722;2023-08-24T09:18:34;9.0;;;2.7;;
6561;SDS011;3314;50.890;4.722;2023-08-24T09:20:23;13.2;;;3.5;;
6561;SDS011;3314;50.890;4.722;2023-08-24T09:22:26;15.1;;;2.6;;
6561;SDS011;3314;50.890;4.722;2023-08-24T09:24:29;10.3;;;2.8;;
6561;SDS011;3314;50.890;4.722;2023-08-24T09:26:29;9.4;;;2.4;;
6561;SDS011;3314;50.890;4.722;2023-08-24T09:28:29;13.2;;;2.7;;
6561;SDS011;3314;50.890;4.722;2023-08-24T09:30:29;10.1;;;3.1;;
6561;SDS011;3314;50.890;4.722;2023-08-24T09:32:29;9.2;;;2.8;;
6561;SDS011;3314;50.890;4.722;2023-08-24T09:34:31;9.9;;;2.7;;
6561;SDS011;3314;50.890;4.722;2023-08-24T09:36:31;15.3;;;2.6;;
6561;SDS011;3314;50.890;4.722;2023-08-24T09:38:30;9.9;;;2.9;;
6561;SDS011;3314;50.890;4.722;2023-08-24T09:40:30;11.5;;;2.9;;
6561;SDS011;3314;50.890;4.722;2023-08-24T09:42:30;13.0;;;2.6;;
6561;SDS011;3314;50.890;4.722;2023-08-24T09:44:31;10.3;;;2.9;;
6561;SDS011;3314;50.890;4.722;2023-08-24T09:46:30;11.9;;;3.2;;
6561;SDS011;3314;50.890;4.722;2023-08-24T09:48:30;9.6;;;2.5;;
6561;SDS011;3314;50.890;4.722;2023-08-24T09:50:29;12.6;;;3.0;;
6561;SDS011;3314;50.890;4.722;2023-08-24T09:52:31;10.1;;;2.8;;
6561;SDS011;3314;50.890;4.722;2023-08-24T09:54:31;13.2;;;3.4;;
6561;SDS011;3314;50.890;4.722;2023-08-24T09:56:31;12.2;;;2.9;;
6561;SDS011;3314;50.890;4.722;2023-08-24T09:58:22;11.6;;;3.7;;
6561;SDS011;3314;50.890;4.722;2023-08-24T10:00:25;12.8;;;3.4;;
6561;SDS011;3314;50.890;4.722;2023-08-24T10:02:24;12.1;;;3.1;;
6561;SDS011;3314;50.890;4.722;2023-08-24T10:04:28;9.4;;;3.1;;
6561;SDS011;3314;50.890;4.722;2023-08-24T10:06:29;12.4;;;3.3;;
6561;SDS011;3314;50.890;4.722;2023-08-24T10:08:29;12.7;;;2.9;;
6561;SDS011;3314;50.890;4.722;2023-08-24T10:10:31;14.3;;;3.5;;
6561;SDS011;3314;50.890;4.722;2023-08-24T10:12:32;10.0;;;3.2;;
6561;SDS011;3314;50.890;4.722;2023-08-24T10:14:24;11.9;;;3.1;;
6561;SDS011;3314;50.890;4.722;2023-08-24T10:16:25;16.5;;;3.7;;
6561;SDS011;3314;50.890;4.722;2023-08-24T10:18:26;16.4;;;3.9;;
6561;SDS011;3314;50.890;4.722;2023-08-24T10:20:26;10.3;;;3.4;;
6561;SDS011;3314;50.890;4.722;2023-08-24T10:22:26;18.9;;;3.6;;
6561;SDS011;3314;50.890;4.722;2023-08-24T10:24:26;8.8;;;3.3;;
6561;SDS011;3314;50.890;4.722;2023-08-24T10:26:27;10.3;;;3.7;;
6561;SDS011;3314;50.890;4.722;2023-08-24T10:28:27;10.2;;;3.5;;
6561;SDS011;3314;50.890;4.722;2023-08-24T10:30:29;12.1;;;4.1;;
6561;SDS011;3314;50.890;4.722;2023-08-24T10:32:29;10.8;;;4.0;;
6561;SDS011;3314;50.890;4.722;2023-08-24T10:34:29;11.1;;;4.4;;
6561;SDS011;3314;50.890;4.722;2023-08-24T10:36:29;11.6;;;3.6;;
6561;SDS011;3314;50.890;4.722;2023-08-24T10:38:29;16.5;;;4.2;;
6561;SDS011;3314;50.890;4.722;2023-08-24T10:40:32;12.4;;;3.6;;
6561;SDS011;3314;50.890;4.722;2023-08-24T10:42:21;14.5;;;4.4;;
6561;SDS011;3314;50.890;4.722;2023-08-24T10:44:21;11.6;;;4.1;;
6561;SDS011;3314;50.890;4.722;2023-08-24T10:46:21;14.0;;;4.5;;
6561;SDS011;3314;50.890;4.722;2023-08-24T10:48:21;11.4;;;3.7;;
6561;SDS011;3314;50.890;4.722;2023-08-24T10:50:22;14.8;;;4.0;;
6561;SDS011;3314;50.890;4.722;2023-08-24T10:52:23;13.0;;;3.6;;
6561;SDS011;3314;50.890;4.722;2023-08-24T10:54:30;10.3;;;3.4;;
6561;SDS011;3314;50.890;4.722;2023-08-24T10:56:19;12.1;;;3.8;;
6561;SDS011;3314;50.890;4.722;2023-08-24T10:58:19;10.8;;;3.4;;
6561;SDS011;3314;50.890;4.722;2023-08-24T11:00:25;9.8;;;3.7;;
6561;SDS011;3314;50.890;4.722;2023-08-24T11:02:25;11.0;;;3.8;;
6561;SDS011;3314;50.890;4.722;2023-08-24T11:04:26;17.9;;;4.4;;
6561;SDS011;3314;50.890;4.722;2023-08-24T11:06:26;9.2;;;3.7;;
6561;SDS011;3314;50.890;4.722;2023-08-24T11:08:43;11.2;;;4.5;;
6561;SDS011;3314;50.890;4.722;2023-08-24T11:10:20;9.9;;;3.5;;
6561;SDS011;3314;50.890;4.722;2023-08-24T11:12:19;13.0;;;3.9;;
6561;SDS011;3314;50.890;4.722;2023-08-24T11:14:20;12.6;;;4.0;;
6561;SDS011;3314;50.890;4.722;2023-08-24T11:16:38;13.2;;;4.5;;
6561;SDS011;3314;50.890;4.722;2023-08-24T11:18:27;10.6;;;4.1;;
6561;SDS011;3314;50.890;4.722;2023-08-24T11:20:27;10.3;;;4.0;;
6561;SDS011;3314;50.890;4.722;2023-08-24T11:22:18;13.3;;;4.2;;
6561;SDS011;3314;50.890;4.722;2023-08-24T11:24:17;16.0;;;4.3;;
6561;SDS011;3314;50.890;4.722;2023-08-24T11:26:17;10.3;;;3.4;;
6561;SDS011;3314;50.890;4.722;2023-08-24T11:28:17;10.5;;;3.8;;
6561;SDS011;3314;50.890;4.722;2023-08-24T11:30:17;12.3;;;3.9;;
6561;SDS011;3314;50.890;4.722;2023-08-24T11:32:18;10.6;;;4.0;;
6561;SDS011;3314;50.890;4.722;2023-08-24T11:34:18;12.2;;;5.1;;
6561;SDS011;3314;50.890;4.722;2023-08-24T11:36:17;11.6;;;4.3;;
6561;SDS011;3314;50.890;4.722;2023-08-24T11:38:17;11.1;;;3.8;;
6561;SDS011;3314;50.890;4.722;2023-08-24T11:40:17;10.1;;;4.0;;
6561;SDS011;3314;50.890;4.722;2023-08-24T11:42:17;9.7;;;3.4;;
6561;SDS011;3314;50.890;4.722;2023-08-24T11:44:16;10.8;;;3.6;;
6561;SDS011;3314;50.890;4.722;2023-08-24T11:46:17;10.4;;;3.9;;
6561;SDS011;3314;50.890;4.722;2023-08-24T11:48:17;11.8;;;4.1;;
6561;SDS011;3314;50.890;4.722;2023-08-24T11:50:17;11.5;;;4.3;;
6561;SDS011;3314;50.890;4.722;2023-08-24T11:52:17;10.8;;;4.2;;
6561;SDS011;3314;50.890;4.722;2023-08-24T11:54:16;13.0;;;4.0;;
6561;SDS011;3314;50.890;4.722;2023-08-24T11:56:18;10.8;;;4.7;;
6561;SDS011;3314;50.890;4.722;2023-08-24T11:58:18;11.2;;;4.4;;
6561;SDS011;3314;50.890;4.722;2023-08-24T12:00:18;12.2;;;4.2;;
6561;SDS011;3314;50.890;4.722;2023-08-24T12:02:19;9.9;;;3.9;;
6561;SDS011;3314;50.890;4.722;2023-08-24T12:04:19;13.0;;;4.3;;
6561;SDS011;3314;50.890;4.722;2023-08-24T12:06:19;11.0;;;4.7;;
6561;SDS011;3314;50.890;4.722;2023-08-24T12:08:18;12.8;;;4.6;;
6561;SDS011;3314;50.890;4.722;2023-08-24T12:10:18;11.0;;;3.8;;
6561;SDS011;3314;50.890;4.722;2023-08-24T12:12:19;12.6;;;3.8;;
6561;SDS011;3314;50.890;4.722;2023-08-24T12:14:19;11.1;;;3.9;;
6561;SDS011;3314;50.890;4.722;2023-08-24T12:16:20;12.1;;;3.5;;
6561;SDS011;3314;50.890;4.722;2023-08-24T12:18:19;10.2;;;3.1;;
6561;SDS011;3314;50.890;4.722;2023-08-24T12:20:20;11.7;;;3.7;;
6561;SDS011;3314;50.890;4.722;2023-08-24T12:22:19;9.8;;;3.9;;
6561;SDS011;3314;50.890;4.722;2023-08-24T12:24:19;9.3;;;3.3;;
6561;SDS011;3314;50.890;4.722;2023-08-24T12:26:19;10.3;;;3.4;;
6561;SDS011;3314;50.890;4.722;2023-08-24T12:28:19;9.4;;;3.2;;
6561;SDS011;3314;50.890;4.722;2023-08-24T12:30:19;11.9;;;3.6;;
6561;SDS011;3314;50.890;4.722;2023-08-24T12:32:21;9.7;;;3.6;;
6561;SDS011;3314;50.890;4.722;2023-08-24T12:34:21;13.1;;;4.2;;
6561;SDS011;3314;50.890;4.722;2023-08-24T12:36:20;11.6;;;3.7;;
6561;SDS011;3314;50.890;4.722;2023-08-24T12:38:20;9.7;;;3.9;;